Lady S — ZC0D7 — position and weather

sailwx.info

Track history (hours):
 
Tides and Currents Weather Stations Pressure Air Temp Water Temp Dewpoint Dewpoint Depression Visibility Wind Speed Wind Dir Waves Ship Positions

Lady S

Last reported at 2017-Nov-14 21:29 UTC. Time now 2017-Nov-20 17:41 UTC.
Position N 27°48' W 015°19'.

Length 69 m; draft 3.8 m.

Type: Pleasure craft. MMSI: 319369000.

Date/timePositionNaut miles runAvg speedWind from/ knotsBaromVisibWave heightAir tempDewpointWater temp
2017-Nov-14 21:29N 27°48' W 015°19'613.2
2017-Nov-14 21:00N 27°54' W 015°16'714.4
2017-Nov-14 20:30N 28°01' W 015°16'713.6
2017-Nov-14 20:00N 28°06' W 015°22'4 7.3
2017-Nov-14 19:30N 28°08' W 015°25'0 0.0
2017-Nov-14 19:00N 28°08' W 015°25'0 0.0
2017-Nov-14 18:30N 28°08' W 015°25'0 0.0
2017-Nov-14 18:00N 28°08' W 015°25'0 0.0
2017-Nov-14 17:30N 28°08' W 015°25'0 0.0
2017-Nov-14 17:00N 28°08' W 015°25'0 0.0
2017-Nov-14 16:30N 28°08' W 015°25'0 0.0
2017-Nov-14 16:00N 28°08' W 015°25'0 0.0
2017-Nov-14 15:30N 28°08' W 015°25'0 0.0
2017-Nov-14 15:00N 28°08' W 015°25'0 0.0
2017-Nov-14 14:30N 28°08' W 015°25'1 2.3
2017-Nov-14 14:00N 28°07' W 015°24'612.9
2017-Nov-14 13:30N 28°11' W 015°18'715.0
2017-Nov-14 13:00N 28°16' W 015°12'715.0
2017-Nov-14 12:31N 28°22' W 015°06'714.8
2017-Nov-14 12:00N 28°27' W 015°00'714.6
2017-Nov-14 11:30N 28°32' W 014°54'815.0
2017-Nov-14 11:00N 28°38' W 014°48'1715.1
2017-Nov-14 09:52N 28°50' W 014°35'62514.8
2017-Nov-12 15:43N 35°58' W 005°35'311.7
2017-Nov-12 15:30N 35°59' W 005°32'1210.0
2017-Nov-12 14:20N 36°08' W 005°23'230 8.7
2017-Nov-11 12:01N 37°22' W 000°52'313.4
2017-Nov-11 11:48N 37°24' W 000°49'413.3
2017-Nov-11 11:30N 37°26' W 000°45'1013.3
2017-Nov-11 10:46N 37°33' W 000°36'413.4
2017-Nov-11 10:30N 37°35' W 000°32'713.2
2017-Nov-11 10:00N 37°41' W 000°28'  
2017-Nov-07 08:37N 41°14' E 001°59'315.9
2017-Nov-07 08:27N 41°13' E 001°55'715.4
2017-Nov-07 08:00N 41°12' E 001°47'2 4.4
2017-Nov-07 07:30N 41°11' E 001°44'1 2.4
2017-Nov-07 06:56N 41°13' E 001°44'0 0.0
2017-Nov-07 06:23N 41°13' E 001°44'0 0.0
2017-Nov-07 05:56N 41°13' E 001°44'0 0.0
2017-Nov-07 05:26N 41°13' E 001°44'0 0.0
2017-Nov-07 04:56N 41°13' E 001°44'0 0.0
2017-Nov-07 04:29N 41°13' E 001°44'0 0.0
2017-Nov-07 03:59N 41°13' E 001°44'0 0.0
2017-Nov-07 03:29N 41°13' E 001°44'0 0.0
2017-Nov-07 02:59N 41°13' E 001°44'0 0.0
2017-Nov-07 02:29N 41°13' E 001°44'0 0.0
2017-Nov-07 01:44N 41°13' E 001°44'0 0.0
2017-Nov-07 01:29N 41°13' E 001°44'0 0.0
2017-Nov-07 00:59N 41°13' E 001°44'0 0.0
2017-Nov-07 00:29N 41°13' E 001°44'0 0.0
2017-Nov-06 23:59N 41°13' E 001°44'0 0.0
2017-Nov-06 23:29N 41°13' E 001°44'0 0.0
2017-Nov-06 22:59N 41°13' E 001°44'0 0.0
2017-Nov-06 22:29N 41°13' E 001°44'0 0.0
2017-Nov-06 21:50N 41°13' E 001°44'0 0.0
2017-Nov-06 21:20N 41°13' E 001°44'0 0.0
2017-Nov-06 20:50N 41°13' E 001°44'0 0.0
2017-Nov-06 20:08N 41°13' E 001°44'0 0.0
2017-Nov-06 02:26N 41°13' E 001°44'0 0.0
2017-Nov-06 01:56N 41°13' E 001°44'0 0.0
2017-Nov-06 01:26N 41°13' E 001°44'0 0.0
2017-Nov-06 00:56N 41°13' E 001°44'0 0.0
2017-Nov-06 00:29N 41°13' E 001°44'0 0.0
2017-Nov-05 23:59N 41°13' E 001°44'0 0.0
2017-Nov-05 23:29N 41°13' E 001°44'0 0.0
2017-Nov-05 22:59N 41°13' E 001°44'0 0.0
2017-Nov-05 22:29N 41°13' E 001°44'0 0.0
2017-Nov-05 21:59N 41°13' E 001°44'0 0.0
2017-Nov-05 21:29N 41°13' E 001°44'0 0.0
2017-Nov-05 20:59N 41°13' E 001°44'0 0.0
2017-Nov-05 20:29N 41°13' E 001°44'0 0.0
2017-Nov-05 19:59N 41°13' E 001°44'0 0.0
2017-Nov-05 19:29N 41°13' E 001°44'0 0.0
2017-Nov-05 18:59N 41°13' E 001°44'0 0.0
2017-Nov-05 18:29N 41°13' E 001°44'0 0.0
2017-Nov-05 17:59N 41°13' E 001°44'0 0.0
2017-Nov-05 17:20N 41°13' E 001°44'0 0.0
2017-Nov-05 16:50N 41°13' E 001°44'0 0.0
2017-Nov-05 16:23N 41°13' E 001°44'0 0.0
2017-Nov-05 15:56N 41°13' E 001°44'0 0.0
2017-Nov-05 15:26N 41°13' E 001°44'0 0.0
2017-Nov-05 14:56N 41°13' E 001°44'0 0.0
2017-Nov-05 14:26N 41°13' E 001°44'0 0.0
2017-Nov-05 13:53N 41°13' E 001°44'0 0.0
2017-Nov-05 13:26N 41°13' E 001°44'0 0.0
2017-Nov-05 12:56N 41°13' E 001°44'0 0.0
2017-Nov-05 12:26N 41°13' E 001°44'0 0.0
2017-Nov-05 11:56N 41°13' E 001°44'0 0.0
2017-Nov-05 11:26N 41°13' E 001°44'0 0.0
2017-Nov-05 10:59N 41°13' E 001°44'0 0.0
2017-Nov-05 10:26N 41°13' E 001°44'0 0.0
2017-Nov-05 09:55N 41°13' E 001°44'0 0.0
2017-Nov-05 09:25N 41°13' E 001°44'0 0.0
2017-Nov-05 08:55N 41°13' E 001°44'0 0.0
2017-Nov-05 08:25N 41°13' E 001°44'0 0.0
2017-Nov-05 07:55N 41°13' E 001°44'0 0.0
2017-Nov-05 07:27N 41°13' E 001°44'0 0.0
2017-Nov-05 06:57N 41°13' E 001°44'0 0.0
2017-Nov-05 06:27N 41°13' E 001°44'0 0.0
2017-Nov-05 05:57N 41°13' E 001°44'0 0.0
2017-Nov-05 05:13N 41°13' E 001°44'0 0.0
2017-Nov-05 04:57N 41°13' E 001°44'0 0.0
2017-Nov-05 04:27N 41°13' E 001°44'0 0.0
2017-Nov-05 03:57N 41°13' E 001°44'0 0.0
2017-Nov-05 03:27N 41°13' E 001°44'0 0.0
2017-Nov-05 02:57N 41°13' E 001°44'0 0.0
2017-Nov-05 02:27N 41°13' E 001°44'0 0.0
2017-Nov-05 01:57N 41°13' E 001°44'0 0.0
2017-Nov-05 01:19N 41°13' E 001°44'0 0.0
2017-Nov-05 00:57N 41°13' E 001°44'0 0.0
2017-Nov-05 00:19N 41°13' E 001°44'0 0.0
2017-Nov-04 23:49N 41°13' E 001°44'0 0.0
2017-Nov-04 23:19N 41°13' E 001°44'0 0.0
2017-Nov-04 22:55N 41°13' E 001°44'0 0.0
2017-Nov-04 22:25N 41°13' E 001°44'0 0.0
2017-Nov-04 21:55N 41°13' E 001°44'  
Track history (hours):
 
Tides and Currents Weather Stations Pressure Air Temp Water Temp Dewpoint Dewpoint Depression Visibility Wind Speed Wind Dir Waves Ship Positions

Lady S

Last reported at 2017-Nov-14 21:29 UTC. Time now 2017-Nov-20 17:41 UTC.
Position N 27°48' W 015°19'.

Length 69 m; draft 3.8 m.

Type: Pleasure craft. MMSI: 319369000.

Date/timePositionNaut miles runAvg speedWind from/ knotsBaromVisibWave heightAir tempDewpointWater temp
2017-Nov-14 21:29N 27°48' W 015°19'613.2
2017-Nov-14 21:00N 27°54' W 015°16'714.4
2017-Nov-14 20:30N 28°01' W 015°16'713.6
2017-Nov-14 20:00N 28°06' W 015°22'4 7.3
2017-Nov-14 19:30N 28°08' W 015°25'0 0.0
2017-Nov-14 19:00N 28°08' W 015°25'0 0.0
2017-Nov-14 18:30N 28°08' W 015°25'0 0.0
2017-Nov-14 18:00N 28°08' W 015°25'0 0.0
2017-Nov-14 17:30N 28°08' W 015°25'0 0.0
2017-Nov-14 17:00N 28°08' W 015°25'0 0.0
2017-Nov-14 16:30N 28°08' W 015°25'0 0.0
2017-Nov-14 16:00N 28°08' W 015°25'0 0.0
2017-Nov-14 15:30N 28°08' W 015°25'0 0.0
2017-Nov-14 15:00N 28°08' W 015°25'0 0.0
2017-Nov-14 14:30N 28°08' W 015°25'1 2.3
2017-Nov-14 14:00N 28°07' W 015°24'612.9
2017-Nov-14 13:30N 28°11' W 015°18'715.0
2017-Nov-14 13:00N 28°16' W 015°12'715.0
2017-Nov-14 12:31N 28°22' W 015°06'714.8
2017-Nov-14 12:00N 28°27' W 015°00'714.6
2017-Nov-14 11:30N 28°32' W 014°54'815.0
2017-Nov-14 11:00N 28°38' W 014°48'1715.1
2017-Nov-14 09:52N 28°50' W 014°35'62514.8
2017-Nov-12 15:43N 35°58' W 005°35'311.7
2017-Nov-12 15:30N 35°59' W 005°32'1210.0
2017-Nov-12 14:20N 36°08' W 005°23'230 8.7
2017-Nov-11 12:01N 37°22' W 000°52'313.4
2017-Nov-11 11:48N 37°24' W 000°49'413.3
2017-Nov-11 11:30N 37°26' W 000°45'1013.3
2017-Nov-11 10:46N 37°33' W 000°36'413.4
2017-Nov-11 10:30N 37°35' W 000°32'713.2
2017-Nov-11 10:00N 37°41' W 000°28'  
2017-Nov-07 08:37N 41°14' E 001°59'315.9
2017-Nov-07 08:27N 41°13' E 001°55'715.4
2017-Nov-07 08:00N 41°12' E 001°47'2 4.4
2017-Nov-07 07:30N 41°11' E 001°44'1 2.4
2017-Nov-07 06:56N 41°13' E 001°44'0 0.0
2017-Nov-07 06:23N 41°13' E 001°44'0 0.0
2017-Nov-07 05:56N 41°13' E 001°44'0 0.0
2017-Nov-07 05:26N 41°13' E 001°44'0 0.0
2017-Nov-07 04:56N 41°13' E 001°44'0 0.0
2017-Nov-07 04:29N 41°13' E 001°44'0 0.0
2017-Nov-07 03:59N 41°13' E 001°44'0 0.0
2017-Nov-07 03:29N 41°13' E 001°44'0 0.0
2017-Nov-07 02:59N 41°13' E 001°44'0 0.0
2017-Nov-07 02:29N 41°13' E 001°44'0 0.0
2017-Nov-07 01:44N 41°13' E 001°44'0 0.0
2017-Nov-07 01:29N 41°13' E 001°44'0 0.0
2017-Nov-07 00:59N 41°13' E 001°44'0 0.0
2017-Nov-07 00:29N 41°13' E 001°44'0 0.0
2017-Nov-06 23:59N 41°13' E 001°44'0 0.0
2017-Nov-06 23:29N 41°13' E 001°44'0 0.0
2017-Nov-06 22:59N 41°13' E 001°44'0 0.0
2017-Nov-06 22:29N 41°13' E 001°44'0 0.0
2017-Nov-06 21:50N 41°13' E 001°44'0 0.0
2017-Nov-06 21:20N 41°13' E 001°44'0 0.0
2017-Nov-06 20:50N 41°13' E 001°44'0 0.0
2017-Nov-06 20:08N 41°13' E 001°44'0 0.0
2017-Nov-06 02:26N 41°13' E 001°44'0 0.0
2017-Nov-06 01:56N 41°13' E 001°44'0 0.0
2017-Nov-06 01:26N 41°13' E 001°44'0 0.0
2017-Nov-06 00:56N 41°13' E 001°44'0 0.0
2017-Nov-06 00:29N 41°13' E 001°44'0 0.0
2017-Nov-05 23:59N 41°13' E 001°44'0 0.0
2017-Nov-05 23:29N 41°13' E 001°44'0 0.0
2017-Nov-05 22:59N 41°13' E 001°44'0 0.0
2017-Nov-05 22:29N 41°13' E 001°44'0 0.0
2017-Nov-05 21:59N 41°13' E 001°44'0 0.0
2017-Nov-05 21:29N 41°13' E 001°44'0 0.0
2017-Nov-05 20:59N 41°13' E 001°44'0 0.0
2017-Nov-05 20:29N 41°13' E 001°44'0 0.0
2017-Nov-05 19:59N 41°13' E 001°44'0 0.0
2017-Nov-05 19:29N 41°13' E 001°44'0 0.0
2017-Nov-05 18:59N 41°13' E 001°44'0 0.0
2017-Nov-05 18:29N 41°13' E 001°44'0 0.0
2017-Nov-05 17:59N 41°13' E 001°44'0 0.0
2017-Nov-05 17:20N 41°13' E 001°44'0 0.0
2017-Nov-05 16:50N 41°13' E 001°44'0 0.0
2017-Nov-05 16:23N 41°13' E 001°44'0 0.0
2017-Nov-05 15:56N 41°13' E 001°44'0 0.0
2017-Nov-05 15:26N 41°13' E 001°44'0 0.0
2017-Nov-05 14:56N 41°13' E 001°44'0 0.0
2017-Nov-05 14:26N 41°13' E 001°44'0 0.0
2017-Nov-05 13:53N 41°13' E 001°44'0 0.0
2017-Nov-05 13:26N 41°13' E 001°44'0 0.0
2017-Nov-05 12:56N 41°13' E 001°44'0 0.0
2017-Nov-05 12:26N 41°13' E 001°44'0 0.0
2017-Nov-05 11:56N 41°13' E 001°44'0 0.0
2017-Nov-05 11:26N 41°13' E 001°44'0 0.0
2017-Nov-05 10:59N 41°13' E 001°44'0 0.0
2017-Nov-05 10:26N 41°13' E 001°44'0 0.0
2017-Nov-05 09:55N 41°13' E 001°44'0 0.0
2017-Nov-05 09:25N 41°13' E 001°44'0 0.0
2017-Nov-05 08:55N 41°13' E 001°44'0 0.0
2017-Nov-05 08:25N 41°13' E 001°44'0 0.0
2017-Nov-05 07:55N 41°13' E 001°44'0 0.0
2017-Nov-05 07:27N 41°13' E 001°44'0 0.0
2017-Nov-05 06:57N 41°13' E 001°44'0 0.0
2017-Nov-05 06:27N 41°13' E 001°44'0 0.0
2017-Nov-05 05:57N 41°13' E 001°44'0 0.0
2017-Nov-05 05:13N 41°13' E 001°44'0 0.0
2017-Nov-05 04:57N 41°13' E 001°44'0 0.0
2017-Nov-05 04:27N 41°13' E 001°44'0 0.0
2017-Nov-05 03:57N 41°13' E 001°44'0 0.0
2017-Nov-05 03:27N 41°13' E 001°44'0 0.0
2017-Nov-05 02:57N 41°13' E 001°44'0 0.0
2017-Nov-05 02:27N 41°13' E 001°44'0 0.0
2017-Nov-05 01:57N 41°13' E 001°44'0 0.0
2017-Nov-05 01:19N 41°13' E 001°44'0 0.0
2017-Nov-05 00:57N 41°13' E 001°44'0 0.0
2017-Nov-05 00:19N 41°13' E 001°44'0 0.0
2017-Nov-04 23:49N 41°13' E 001°44'0 0.0
2017-Nov-04 23:19N 41°13' E 001°44'0 0.0
2017-Nov-04 22:55N 41°13' E 001°44'0 0.0
2017-Nov-04 22:25N 41°13' E 001°44'0 0.0
2017-Nov-04 21:55N 41°13' E 001°44'  

Dump ship's entire track history